Time;durP1;ratioP1;P1;durP2;ratioP2;P2;SDS_P1;SDS_P2;PMS_P1;PMS_P2;Temp;Humidity;BMP_temperature;BMP_pressure;BME280_temperature;BME280_humidity;BME280_pressure;Samples;Min_cycle;Max_cycle;Signal;HPM_P1;HPM_P2
2023/12/03 00:00:08;;;;;;;5.70;4.67;;;;;;;;;;4989624;28;20621;-84
2023/12/03 00:03:13;;;;;;;6.27;4.70;;;;;;;;;;4989444;28;20543;-84
2023/12/03 00:06:17;;;;;;;5.30;4.43;;;;;;;;;;4988561;28;20539;-84
2023/12/03 00:09:21;;;;;;;6.90;5.13;;;;;;;;;;4977319;28;20542;-83
2023/12/03 00:12:25;;;;;;;6.70;5.00;;;;;;;;;;4989058;28;20590;-84
2023/12/03 00:15:30;;;;;;;6.07;5.00;;;;;;;;;;4978719;28;20873;-84
2023/12/03 00:18:34;;;;;;;7.87;5.33;;;;;;;;;;4978714;28;20546;-84
2023/12/03 00:21:38;;;;;;;9.30;6.13;;;;;;;;;;4989427;28;20622;-87
2023/12/03 00:24:42;;;;;;;8.23;5.87;;;;;;;;;;4966255;28;20550;-87
2023/12/03 00:27:48;;;;;;;7.67;5.90;;;;;;;;;;4966325;28;20534;-87
2023/12/03 00:30:53;;;;;;;7.80;5.70;;;;;;;;;;4966275;28;20646;-87
2023/12/03 00:33:57;;;;;;;8.00;5.87;;;;;;;;;;4988245;28;20534;-87
2023/12/03 00:37:01;;;;;;;7.50;5.53;;;;;;;;;;4977227;28;20538;-87
2023/12/03 00:40:06;;;;;;;8.80;5.67;;;;;;;;;;4987659;28;20618;-87
2023/12/03 00:43:11;;;;;;;7.93;5.73;;;;;;;;;;4976747;28;20530;-88
2023/12/03 00:46:17;;;;;;;6.77;5.60;;;;;;;;;;4987870;28;20534;-87
2023/12/03 00:49:22;;;;;;;8.00;5.67;;;;;;;;;;4987381;28;20543;-87
2023/12/03 00:52:26;;;;;;;7.60;5.63;;;;;;;;;;4987629;28;20594;-87
2023/12/03 00:55:30;;;;;;;8.70;5.60;;;;;;;;;;4987457;28;20877;-87
2023/12/03 00:58:34;;;;;;;7.93;5.90;;;;;;;;;;4987258;28;20547;-87
2023/12/03 01:01:39;;;;;;;8.10;5.90;;;;;;;;;;4976036;28;20617;-87
2023/12/03 01:04:43;;;;;;;9.10;6.40;;;;;;;;;;4986941;28;20546;-87
2023/12/03 01:07:48;;;;;;;8.67;6.50;;;;;;;;;;4975948;28;20543;-87
2023/12/03 01:10:52;;;;;;;9.73;6.83;;;;;;;;;;4986448;28;20626;-87
2023/12/03 01:13:56;;;;;;;9.27;6.37;;;;;;;;;;4986892;28;20542;-87
2023/12/03 01:17:00;;;;;;;10.03;7.00;;;;;;;;;;4976012;28;20546;-88
2023/12/03 01:20:06;;;;;;;9.73;6.90;;;;;;;;;;4975322;28;20641;-87
2023/12/03 01:23:11;;;;;;;9.60;6.90;;;;;;;;;;4965080;28;20539;-87
2023/12/03 01:26:15;;;;;;;10.33;6.23;;;;;;;;;;4986161;28;20554;-87
2023/12/03 01:29:19;;;;;;;10.13;7.20;;;;;;;;;;4986494;28;20559;-87
2023/12/03 01:32:24;;;;;;;10.83;7.13;;;;;;;;;;4987217;28;20728;-87
2023/12/03 01:35:28;;;;;;;9.43;6.83;;;;;;;;;;4985726;28;20553;-87
2023/12/03 01:38:33;;;;;;;9.90;6.53;;;;;;;;;;4986664;28;20543;-87
2023/12/03 01:41:38;;;;;;;9.83;6.57;;;;;;;;;;4986788;28;20610;-87
2023/12/03 01:44:42;;;;;;;9.93;6.47;;;;;;;;;;4985681;28;20598;-87
2023/12/03 01:47:46;;;;;;;9.33;6.47;;;;;;;;;;4985750;28;20543;-87
2023/12/03 01:50:51;;;;;;;9.70;6.60;;;;;;;;;;4962908;28;20642;-87
2023/12/03 01:53:56;;;;;;;7.80;5.67;;;;;;;;;;4963186;28;21076;-87
2023/12/03 01:57:00;;;;;;;9.77;6.37;;;;;;;;;;4986340;28;20538;-87
2023/12/03 02:00:06;;;;;;;8.07;5.60;;;;;;;;;;4984050;28;20614;-87
2023/12/03 02:03:17;;;;;;;7.57;5.73;;;;;;;;;;4985825;28;20554;-87
2023/12/03 02:06:21;;;;;;;7.37;5.73;;;;;;;;;;4974058;28;20546;-87
2023/12/03 02:09:26;;;;;;;6.93;5.03;;;;;;;;;;4984877;28;20885;-87
2023/12/03 02:12:30;;;;;;;7.63;5.13;;;;;;;;;;4973334;28;20599;-87
2023/12/03 02:15:34;;;;;;;7.13;4.60;;;;;;;;;;4972947;28;20547;-87
2023/12/03 02:18:38;;;;;;;6.33;4.77;;;;;;;;;;4960344;28;20546;-87
2023/12/03 02:21:43;;;;;;;6.27;4.57;;;;;;;;;;4983719;28;20609;-87
2023/12/03 02:24:47;;;;;;;8.20;5.23;;;;;;;;;;4960854;28;20543;-87
2023/12/03 02:27:51;;;;;;;7.33;5.20;;;;;;;;;;4970994;28;20543;-87
2023/12/03 02:30:57;;;;;;;6.40;5.03;;;;;;;;;;4981849;28;20991;-88
2023/12/03 02:34:08;;;;;;;8.00;5.63;;;;;;;;;;4959967;28;20539;-88
2023/12/03 02:37:12;;;;;;;6.33;4.87;;;;;;;;;;4982236;28;20539;-87
2023/12/03 02:40:16;;;;;;;8.37;5.63;;;;;;;;;;4981594;28;20614;-87
2023/12/03 02:43:20;;;;;;;6.97;4.70;;;;;;;;;;4981693;28;20539;-87
2023/12/03 02:46:25;;;;;;;7.87;5.67;;;;;;;;;;4981705;28;20547;-88
2023/12/03 02:49:29;;;;;;;7.30;5.03;;;;;;;;;;4981586;28;20559;-87
2023/12/03 02:52:33;;;;;;;8.03;5.90;;;;;;;;;;4970812;28;20640;-88
2023/12/03 02:55:37;;;;;;;7.77;5.40;;;;;;;;;;4981720;28;20543;-87
2023/12/03 02:58:41;;;;;;;7.50;5.50;;;;;;;;;;4970239;28;21064;-87
2023/12/03 03:01:45;;;;;;;10.93;6.50;;;;;;;;;;4959390;28;20622;-87
2023/12/03 03:04:51;;;;;;;8.07;5.90;;;;;;;;;;4970585;28;20546;-87
2023/12/03 03:07:55;;;;;;;8.37;5.33;;;;;;;;;;4981025;28;20547;-87
2023/12/03 03:10:59;;;;;;;9.00;5.63;;;;;;;;;;4980428;28;20629;-87
2023/12/03 03:14:04;;;;;;;6.80;5.33;;;;;;;;;;4980559;28;20523;-87
2023/12/03 03:17:08;;;;;;;8.60;5.93;;;;;;;;;;4969189;28;20538;-88
2023/12/03 03:20:12;;;;;;;8.07;6.33;;;;;;;;;;4969387;28;20617;-87
2023/12/03 03:23:16;;;;;;;6.40;5.23;;;;;;;;;;4969768;28;20531;-87
2023/12/03 03:26:20;;;;;;;10.10;5.50;;;;;;;;;;4969340;28;20550;-88
2023/12/03 03:29:25;;;;;;;8.10;5.90;;;;;;;;;;4968942;28;20562;-87
2023/12/03 03:32:29;;;;;;;8.63;6.20;;;;;;;;;;4968579;28;20610;-88
2023/12/03 03:35:33;;;;;;;9.57;6.20;;;;;;;;;;4980873;28;20543;-87
2023/12/03 03:38:37;;;;;;;7.40;5.30;;;;;;;;;;4968842;28;20559;-87
2023/12/03 03:41:41;;;;;;;8.53;5.50;;;;;;;;;;4968771;28;20622;-88
2023/12/03 03:44:46;;;;;;;8.37;6.00;;;;;;;;;;4968973;28;20539;-87
2023/12/03 03:47:50;;;;;;;9.43;6.77;;;;;;;;;;4968357;28;20555;-87
2023/12/03 03:50:54;;;;;;;9.10;6.63;;;;;;;;;;4979388;28;20984;-88
2023/12/03 03:53:58;;;;;;;8.80;6.30;;;;;;;;;;4968233;28;20535;-87
2023/12/03 03:57:04;;;;;;;9.63;6.67;;;;;;;;;;4969021;28;20546;-88
2023/12/03 04:00:09;;;;;;;10.77;6.40;;;;;;;;;;4979503;28;20622;-87
2023/12/03 04:03:16;;;;;;;8.70;5.83;;;;;;;;;;4980319;28;20546;-88
2023/12/03 04:06:20;;;;;;;8.30;5.87;;;;;;;;;;4981004;28;20546;-88
2023/12/03 04:09:25;;;;;;;7.27;5.63;;;;;;;;;;4967889;28;20547;-88
2023/12/03 04:12:29;;;;;;;7.57;5.57;;;;;;;;;;4968138;28;20598;-87
2023/12/03 04:15:33;;;;;;;9.23;6.27;;;;;;;;;;4956552;28;20543;-87
2023/12/03 04:18:38;;;;;;;7.43;5.10;;;;;;;;;;4968257;28;20547;-87
2023/12/03 04:21:41;;;;;;;7.33;5.70;;;;;;;;;;4967970;28;20618;-88
2023/12/03 04:24:46;;;;;;;7.37;5.40;;;;;;;;;;4957449;28;20920;-87
2023/12/03 04:27:51;;;;;;;7.60;5.50;;;;;;;;;;4968165;28;20543;-87
2023/12/03 04:30:55;;;;;;;8.80;5.47;;;;;;;;;;4980279;28;20625;-88
2023/12/03 04:33:59;;;;;;;7.77;5.40;;;;;;;;;;4979762;28;20595;-88
2023/12/03 04:37:03;;;;;;;8.23;5.53;;;;;;;;;;4957517;28;20546;-88
2023/12/03 04:40:09;;;;;;;6.90;5.13;;;;;;;;;;4980276;28;20621;-88
2023/12/03 04:43:13;;;;;;;11.67;7.27;;;;;;;;;;4971828;28;21155;-88
2023/12/03 04:46:17;;;;;;;8.53;6.03;;;;;;;;;;4971540;28;20650;-87
2023/12/03 04:49:21;;;;;;;8.90;6.07;;;;;;;;;;4972096;28;20542;-87
2023/12/03 04:52:25;;;;;;;10.93;6.47;;;;;;;;;;4961448;28;20586;-87
2023/12/03 04:55:30;;;;;;;9.77;7.00;;;;;;;;;;4983070;28;20574;-87
2023/12/03 04:58:33;;;;;;;8.07;6.10;;;;;;;;;;4972230;28;20546;-87
2023/12/03 05:01:38;;;;;;;8.80;6.13;;;;;;;;;;4971759;28;20968;-87
2023/12/03 05:04:42;;;;;;;9.90;7.20;;;;;;;;;;4983136;28;21071;-87
2023/12/03 05:07:46;;;;;;;9.97;6.70;;;;;;;;;;4982549;28;20546;-88
2023/12/03 05:10:50;;;;;;;9.33;6.37;;;;;;;;;;4983205;28;20621;-88
2023/12/03 05:13:54;;;;;;;9.60;5.93;;;;;;;;;;4983088;28;20602;-88
2023/12/03 05:16:58;;;;;;;8.77;6.33;;;;;;;;;;4982055;28;20555;-87
2023/12/03 05:20:03;;;;;;;9.60;6.93;;;;;;;;;;4982315;28;21087;-87
2023/12/03 05:23:07;;;;;;;8.73;5.77;;;;;;;;;;4982542;28;20543;-87
2023/12/03 05:26:11;;;;;;;8.63;6.23;;;;;;;;;;4970925;28;20539;-88
2023/12/03 05:29:17;;;;;;;9.27;6.33;;;;;;;;;;4970280;28;20539;-88
2023/12/03 05:32:21;;;;;;;8.10;6.00;;;;;;;;;;4971085;28;20590;-87
2023/12/03 05:35:25;;;;;;;9.93;6.50;;;;;;;;;;4970304;28;20534;-87
2023/12/03 05:38:29;;;;;;;12.17;6.77;;;;;;;;;;4981543;28;21060;-88
2023/12/03 05:41:38;;;;;;;9.60;7.03;;;;;;;;;;4981930;28;20625;-88
2023/12/03 05:44:42;;;;;;;8.53;6.10;;;;;;;;;;4970516;28;20535;-87
2023/12/03 05:47:46;;;;;;;11.17;6.53;;;;;;;;;;4970847;28;20551;-87
2023/12/03 05:50:51;;;;;;;9.67;6.80;;;;;;;;;;4959159;28;20656;-87
2023/12/03 05:53:55;;;;;;;9.57;6.67;;;;;;;;;;4981790;28;20590;-87
2023/12/03 05:56:59;;;;;;;9.83;6.37;;;;;;;;;;4959644;28;20558;-88
2023/12/03 06:00:04;;;;;;;12.73;6.70;;;;;;;;;;4981095;28;20551;-87
2023/12/03 06:03:09;;;;;;;10.77;7.23;;;;;;;;;;4982844;28;20542;-87
2023/12/03 06:06:13;;;;;;;9.53;5.87;;;;;;;;;;4969992;28;20545;-88
2023/12/03 06:09:17;;;;;;;9.13;6.03;;;;;;;;;;4959093;28;20562;-87
2023/12/03 06:12:21;;;;;;;10.57;6.77;;;;;;;;;;4981572;28;20546;-87
2023/12/03 06:15:25;;;;;;;9.90;7.23;;;;;;;;;;4959340;28;20920;-87
2023/12/03 06:18:30;;;;;;;11.33;7.20;;;;;;;;;;4971040;28;21083;-87
2023/12/03 06:21:34;;;;;;;11.30;7.57;;;;;;;;;;4969997;28;20645;-88
2023/12/03 06:24:38;;;;;;;10.70;7.53;;;;;;;;;;4970951;28;20900;-88
2023/12/03 06:27:43;;;;;;;10.20;7.53;;;;;;;;;;4969457;28;20552;-87
2023/12/03 06:30:48;;;;;;;9.27;6.67;;;;;;;;;;4967642;28;20629;-87
2023/12/03 06:33:52;;;;;;;12.93;7.23;;;;;;;;;;4958085;28;20599;-88
2023/12/03 06:36:58;;;;;;;13.17;7.67;;;;;;;;;;4968834;28;20557;-88
2023/12/03 06:40:03;;;;;;;14.30;7.77;;;;;;;;;;4958158;28;20550;-88
2023/12/03 06:43:07;;;;;;;10.87;7.63;;;;;;;;;;4958375;28;20542;-88
2023/12/03 06:46:11;;;;;;;11.70;8.10;;;;;;;;;;4958155;28;20894;-87
2023/12/03 06:49:16;;;;;;;11.30;7.93;;;;;;;;;;4981427;28;20551;-88
2023/12/03 06:52:20;;;;;;;15.73;8.77;;;;;;;;;;4980514;28;20546;-87
2023/12/03 06:55:24;;;;;;;23.73;11.53;;;;;;;;;;4969657;28;20554;-88
2023/12/03 06:58:28;;;;;;;19.63;11.87;;;;;;;;;;4980643;28;20549;-87
2023/12/03 07:01:32;;;;;;;24.80;15.63;;;;;;;;;;4980656;28;20644;-87
2023/12/03 07:04:37;;;;;;;81.90;38.73;;;;;;;;;;4980570;28;20549;-87
2023/12/03 07:07:41;;;;;;;38.50;20.70;;;;;;;;;;4969844;28;20553;-87
2023/12/03 07:10:45;;;;;;;11.97;7.87;;;;;;;;;;4967003;28;20633;-84
2023/12/03 07:13:49;;;;;;;21.07;12.73;;;;;;;;;;4977790;28;21238;-84
2023/12/03 07:16:53;;;;;;;19.67;11.20;;;;;;;;;;4977795;28;20585;-84
2023/12/03 07:19:58;;;;;;;21.40;11.87;;;;;;;;;;4977495;28;20546;-85
2023/12/03 07:23:02;;;;;;;18.37;11.10;;;;;;;;;;4967318;28;20549;-85
2023/12/03 07:26:09;;;;;;;62.67;31.30;;;;;;;;;;4978521;28;20550;-84
2023/12/03 07:29:13;;;;;;;35.07;20.33;;;;;;;;;;4955498;28;20570;-85
2023/12/03 07:32:17;;;;;;;27.17;15.63;;;;;;;;;;4977286;28;20550;-85
2023/12/03 07:35:22;;;;;;;20.83;13.47;;;;;;;;;;4956059;28;20563;-86
2023/12/03 07:38:27;;;;;;;14.93;11.60;;;;;;;;;;4976917;28;20550;-84
2023/12/03 07:41:32;;;;;;;15.17;10.83;;;;;;;;;;4957716;28;20637;-87
2023/12/03 07:44:36;;;;;;;14.93;10.93;;;;;;;;;;4968006;28;21165;-87
2023/12/03 07:47:41;;;;;;;15.10;10.27;;;;;;;;;;4980052;28;20553;-88
2023/12/03 07:50:46;;;;;;;15.37;11.07;;;;;;;;;;4966829;28;20653;-88
2023/12/03 07:53:49;;;;;;;15.13;10.73;;;;;;;;;;4956280;28;21170;-88
2023/12/03 07:56:54;;;;;;;17.77;11.73;;;;;;;;;;4966555;28;20550;-87
2023/12/03 07:59:58;;;;;;;17.00;10.50;;;;;;;;;;4977690;28;20569;-88
2023/12/03 08:03:02;;;;;;;18.97;11.93;;;;;;;;;;4967448;28;20547;-87
2023/12/03 08:06:07;;;;;;;17.07;11.43;;;;;;;;;;4967772;28;21102;-87
2023/12/03 08:09:11;;;;;;;17.33;11.27;;;;;;;;;;4969203;28;20554;-87
2023/12/03 08:12:15;;;;;;;13.63;10.43;;;;;;;;;;4958742;28;20553;-87
2023/12/03 08:15:21;;;;;;;16.57;11.00;;;;;;;;;;4981163;28;20542;-87
2023/12/03 08:18:24;;;;;;;20.37;13.17;;;;;;;;;;4984007;28;20549;-87
2023/12/03 08:21:32;;;;;;;25.17;16.37;;;;;;;;;;4972835;28;20982;-87
2023/12/03 08:24:37;;;;;;;32.80;24.20;;;;;;;;;;4972688;28;20562;-87
2023/12/03 08:27:41;;;;;;;32.83;24.13;;;;;;;;;;4973572;28;20549;-87
2023/12/03 08:30:48;;;;;;;24.97;16.43;;;;;;;;;;4982944;28;20633;-87
2023/12/03 08:33:52;;;;;;;24.20;17.50;;;;;;;;;;4982581;28;20597;-87
2023/12/03 08:36:56;;;;;;;17.50;12.30;;;;;;;;;;4971910;28;20549;-88
2023/12/03 08:40:00;;;;;;;40.03;23.93;;;;;;;;;;4982551;28;20554;-87
2023/12/03 08:43:05;;;;;;;22.80;17.53;;;;;;;;;;4979489;28;20924;-87
2023/12/03 08:46:09;;;;;;;22.67;17.37;;;;;;;;;;4969006;28;21106;-88
2023/12/03 08:49:14;;;;;;;40.97;26.77;;;;;;;;;;4981798;28;20928;-87
2023/12/03 08:52:18;;;;;;;30.67;18.87;;;;;;;;;;4971086;28;21109;-88
2023/12/03 08:55:22;;;;;;;25.90;16.07;;;;;;;;;;4960668;28;20535;-88
2023/12/03 08:58:26;;;;;;;21.47;12.20;;;;;;;;;;4960437;28;20546;-88
2023/12/03 09:01:30;;;;;;;18.00;12.07;;;;;;;;;;4983199;28;20624;-88
2023/12/03 09:04:37;;;;;;;22.23;14.77;;;;;;;;;;4960869;28;20561;-88
2023/12/03 09:07:41;;;;;;;28.37;16.80;;;;;;;;;;4971622;28;20550;-88
2023/12/03 09:10:45;;;;;;;24.60;16.90;;;;;;;;;;4983346;28;20640;-88
2023/12/03 09:13:49;;;;;;;17.37;11.40;;;;;;;;;;4970894;28;20605;-88
2023/12/03 09:16:54;;;;;;;18.20;12.03;;;;;;;;;;4982953;28;20554;-87
2023/12/03 09:19:59;;;;;;;26.33;15.67;;;;;;;;;;4981215;28;20546;-87
2023/12/03 09:23:03;;;;;;;19.70;12.33;;;;;;;;;;4980741;28;20550;-88
2023/12/03 09:26:08;;;;;;;15.70;9.73;;;;;;;;;;4967731;28;20546;-89
2023/12/03 09:29:17;;;;;;;14.70;9.80;;;;;;;;;;4979762;28;20554;-87
2023/12/03 09:32:22;;;;;;;15.07;9.40;;;;;;;;;;4979950;28;20566;-88
2023/12/03 09:35:29;;;;;;;14.23;9.67;;;;;;;;;;4980975;28;20601;-87
2023/12/03 09:38:34;;;;;;;16.17;10.23;;;;;;;;;;4970117;28;20559;-86
2023/12/03 09:41:47;;;;;;;19.67;12.87;;;;;;;;;;4980282;28;20624;-86
2023/12/03 09:45:00;;;;;;;15.37;10.50;;;;;;;;;;4969105;28;20538;-87
2023/12/03 09:48:08;;;;;;;15.37;9.77;;;;;;;;;;4969638;28;20551;-87
2023/12/03 09:51:13;;;;;;;13.47;9.47;;;;;;;;;;4980134;28;20656;-87
2023/12/03 09:54:19;;;;;;;11.57;8.17;;;;;;;;;;4970000;28;20605;-87
2023/12/03 09:57:25;;;;;;;14.53;9.40;;;;;;;;;;4981004;28;20539;-86
2023/12/03 10:00:31;;;;;;;14.47;9.20;;;;;;;;;;4959348;28;20636;-86
2023/12/03 10:03:40;;;;;;;14.63;9.60;;;;;;;;;;4959468;28;20898;-86
2023/12/03 10:06:52;;;;;;;15.80;10.03;;;;;;;;;;4959624;28;20539;-85
2023/12/03 10:09:58;;;;;;;13.40;8.43;;;;;;;;;;4988535;23;20549;-86
2023/12/03 10:13:03;;;;;;;13.13;8.17;;;;;;;;;;4979751;28;21193;-87
2023/12/03 10:16:11;;;;;;;12.53;8.43;;;;;;;;;;4980620;28;20542;-87
2023/12/03 10:19:26;;;;;;;12.77;8.37;;;;;;;;;;4970312;28;20544;-87
2023/12/03 10:22:31;;;;;;;12.20;8.67;;;;;;;;;;4939795;29;20547;-87
2023/12/03 10:25:36;;;;;;;13.33;9.87;;;;;;;;;;4961537;29;20567;-87
2023/12/03 10:28:40;;;;;;;13.17;9.23;;;;;;;;;;4961188;29;20912;-87
2023/12/03 10:31:44;;;;;;;15.27;10.57;;;;;;;;;;4961368;29;20633;-87
2023/12/03 10:34:50;;;;;;;14.23;10.73;;;;;;;;;;4961366;29;20964;-87
2023/12/03 10:37:54;;;;;;;21.80;16.73;;;;;;;;;;4962002;28;20921;-87
2023/12/03 10:40:59;;;;;;;18.17;12.67;;;;;;;;;;4939176;29;20634;-88
2023/12/03 10:44:03;;;;;;;14.67;10.60;;;;;;;;;;4949825;29;20905;-87
2023/12/03 10:47:08;;;;;;;16.10;11.63;;;;;;;;;;4961709;29;20550;-87
2023/12/03 10:50:12;;;;;;;15.00;11.83;;;;;;;;;;4950085;29;20641;-86
2023/12/03 10:53:17;;;;;;;16.33;10.83;;;;;;;;;;4961779;29;20555;-87
2023/12/03 10:56:21;;;;;;;15.40;10.73;;;;;;;;;;4959254;29;20547;-87
2023/12/03 10:59:31;;;;;;;15.03;9.67;;;;;;;;;;4937074;29;20554;-87
2023/12/03 11:02:44;;;;;;;13.37;9.30;;;;;;;;;;4938135;29;20563;-86
2023/12/03 11:05:53;;;;;;;13.50;9.40;;;;;;;;;;4960666;29;20547;-86
2023/12/03 11:08:58;;;;;;;9.90;6.50;;;;;;;;;;4959162;29;20555;-82
2023/12/03 11:12:03;;;;;;;13.40;9.10;;;;;;;;;;4959640;28;21214;-85
2023/12/03 11:15:08;;;;;;;13.97;8.93;;;;;;;;;;4947831;29;20934;-86
2023/12/03 11:18:14;;;;;;;16.17;10.23;;;;;;;;;;4947383;29;20563;-86
2023/12/03 11:21:33;;;;;;;13.13;8.77;;;;;;;;;;4958221;29;20629;-86
2023/12/03 11:24:49;;;;;;;12.07;8.83;;;;;;;;;;4957977;29;20569;-86
2023/12/03 11:27:54;;;;;;;14.03;9.50;;;;;;;;;;4958556;29;20546;-88
2023/12/03 11:30:58;;;;;;;13.73;9.00;;;;;;;;;;4957593;29;20638;-86
2023/12/03 11:34:05;;;;;;;14.33;9.50;;;;;;;;;;4958346;29;20550;-86
2023/12/03 11:37:11;;;;;;;11.50;8.67;;;;;;;;;;4958473;29;20558;-87
2023/12/03 11:40:16;;;;;;;13.60;9.67;;;;;;;;;;4958317;29;20628;-86
2023/12/03 11:43:26;;;;;;;12.87;9.30;;;;;;;;;;4957871;29;20536;-86
2023/12/03 11:46:30;;;;;;;13.47;9.03;;;;;;;;;;4959067;29;20541;-86
2023/12/03 11:49:38;;;;;;;13.23;9.30;;;;;;;;;;4958271;28;20554;-86
2023/12/03 11:52:43;;;;;;;13.07;10.63;;;;;;;;;;4968682;28;20543;-86
2023/12/03 11:55:49;;;;;;;14.47;9.67;;;;;;;;;;4957613;29;20622;-85
2023/12/03 11:58:54;;;;;;;11.37;8.10;;;;;;;;;;4958943;29;20902;-85
2023/12/03 12:01:59;;;;;;;10.30;7.30;;;;;;;;;;4957735;29;20984;-86
2023/12/03 12:05:04;;;;;;;11.77;6.80;;;;;;;;;;4946394;29;20551;-85
2023/12/03 12:08:08;;;;;;;13.47;9.00;;;;;;;;;;4946406;29;20547;-86
2023/12/03 12:11:12;;;;;;;11.40;7.77;;;;;;;;;;4957965;28;20649;-86
2023/12/03 12:14:19;;;;;;;11.23;7.80;;;;;;;;;;4957506;29;20606;-87
2023/12/03 12:17:24;;;;;;;10.97;7.87;;;;;;;;;;4946427;29;20555;-85
2023/12/03 12:20:29;;;;;;;12.10;8.63;;;;;;;;;;4957804;29;20626;-84
2023/12/03 12:23:34;;;;;;;10.73;7.83;;;;;;;;;;4963384;29;21099;-83
2023/12/03 12:26:38;;;;;;;11.97;7.40;;;;;;;;;;4951774;29;21155;-84
2023/12/03 12:29:42;;;;;;;13.40;9.03;;;;;;;;;;4953092;29;20550;-83
2023/12/03 12:32:51;;;;;;;13.53;8.50;;;;;;;;;;4963215;29;20568;-84
2023/12/03 12:36:00;;;;;;;13.83;9.30;;;;;;;;;;4952361;29;20930;-82
2023/12/03 12:39:04;;;;;;;17.37;10.57;;;;;;;;;;4948991;29;20575;-83
2023/12/03 12:42:22;;;;;;;13.07;8.73;;;;;;;;;;4949043;29;20617;-83
2023/12/03 12:45:28;;;;;;;14.57;9.33;;;;;;;;;;4948894;29;20544;-82
2023/12/03 12:48:35;;;;;;;14.87;7.93;;;;;;;;;;4937705;29;20914;-81
2023/12/03 12:51:39;;;;;;;14.40;8.77;;;;;;;;;;4948640;29;20630;-83
2023/12/03 12:54:48;;;;;;;13.30;9.57;;;;;;;;;;4961030;29;20611;-82
2023/12/03 12:57:53;;;;;;;14.83;8.30;;;;;;;;;;4970494;28;20555;-82
2023/12/03 13:00:58;;;;;;;24.63;14.33;;;;;;;;;;4948814;28;21219;-82
2023/12/03 13:04:05;;;;;;;13.90;9.20;;;;;;;;;;4963473;29;20546;-82
2023/12/03 13:07:10;;;;;;;14.83;10.13;;;;;;;;;;4964667;29;20574;-83
2023/12/03 13:10:15;;;;;;;14.23;10.27;;;;;;;;;;4964098;28;20645;-83
2023/12/03 13:13:19;;;;;;;16.10;9.40;;;;;;;;;;4952167;29;20555;-83
2023/12/03 13:16:24;;;;;;;19.07;10.73;;;;;;;;;;4963524;29;20953;-82
2023/12/03 13:19:28;;;;;;;13.63;9.57;;;;;;;;;;4962360;29;20554;-83
2023/12/03 13:22:33;;;;;;;15.23;9.87;;;;;;;;;;4952550;29;20572;-82
2023/12/03 13:25:37;;;;;;;18.60;12.07;;;;;;;;;;4964310;29;20539;-82
2023/12/03 13:28:43;;;;;;;25.23;15.00;;;;;;;;;;4963563;29;20916;-83
2023/12/03 13:31:47;;;;;;;21.67;13.07;;;;;;;;;;4963611;29;20634;-83
2023/12/03 13:34:51;;;;;;;17.83;11.47;;;;;;;;;;4962866;29;20601;-81
2023/12/03 13:37:56;;;;;;;19.33;11.80;;;;;;;;;;4963861;29;20555;-83
2023/12/03 13:41:00;;;;;;;15.70;10.53;;;;;;;;;;4964337;29;20629;-83
2023/12/03 13:44:04;;;;;;;15.23;9.60;;;;;;;;;;4962750;29;20574;-82
2023/12/03 13:47:08;;;;;;;18.00;10.93;;;;;;;;;;4963546;29;20563;-83
2023/12/03 13:50:13;;;;;;;12.80;8.07;;;;;;;;;;4964794;29;20629;-84
2023/12/03 13:53:17;;;;;;;12.17;7.80;;;;;;;;;;4952669;29;20554;-83
2023/12/03 13:56:21;;;;;;;11.57;7.53;;;;;;;;;;4964046;29;20604;-83
2023/12/03 13:59:27;;;;;;;12.10;7.33;;;;;;;;;;4963478;29;20559;-82
2023/12/03 14:02:31;;;;;;;15.10;10.20;;;;;;;;;;4941427;29;20544;-82
2023/12/03 14:05:35;;;;;;;14.73;9.37;;;;;;;;;;4963148;29;20550;-82
2023/12/03 14:08:41;;;;;;;12.47;8.20;;;;;;;;;;4963056;29;20555;-82
2023/12/03 14:11:45;;;;;;;10.40;7.10;;;;;;;;;;4962923;28;20663;-82
2023/12/03 14:14:49;;;;;;;16.30;8.87;;;;;;;;;;4962376;28;21103;-81
2023/12/03 14:17:54;;;;;;;13.03;8.40;;;;;;;;;;4952690;29;20571;-82
2023/12/03 14:20:58;;;;;;;14.93;9.13;;;;;;;;;;4963383;29;20626;-85
2023/12/03 14:24:04;;;;;;;13.80;8.83;;;;;;;;;;4960500;29;20553;-86
2023/12/03 14:27:08;;;;;;;15.97;9.80;;;;;;;;;;4974031;28;21101;-84
2023/12/03 14:30:13;;;;;;;15.93;9.60;;;;;;;;;;4941835;29;20630;-84
2023/12/03 14:33:17;;;;;;;16.13;10.43;;;;;;;;;;4974525;28;20560;-84
2023/12/03 14:36:25;;;;;;;15.40;10.43;;;;;;;;;;4962271;29;20598;-83
2023/12/03 14:39:30;;;;;;;15.60;9.53;;;;;;;;;;4952469;29;20563;-82
2023/12/03 14:42:34;;;;;;;17.90;10.17;;;;;;;;;;4952774;29;20566;-84
2023/12/03 14:45:39;;;;;;;17.80;10.07;;;;;;;;;;4960784;29;21006;-85
2023/12/03 14:48:43;;;;;;;16.73;10.63;;;;;;;;;;4959563;29;20542;-86
2023/12/03 14:51:48;;;;;;;16.30;10.50;;;;;;;;;;4959037;29;20743;-85
2023/12/03 14:54:52;;;;;;;18.03;10.63;;;;;;;;;;4961636;29;21092;-83
2023/12/03 14:57:56;;;;;;;18.70;11.07;;;;;;;;;;4950604;29;20563;-82
2023/12/03 15:01:00;;;;;;;15.93;10.17;;;;;;;;;;4950761;29;20627;-82
2023/12/03 15:04:05;;;;;;;15.30;10.30;;;;;;;;;;4962567;29;20616;-84
2023/12/03 15:07:09;;;;;;;16.30;10.57;;;;;;;;;;4951609;29;21096;-83
2023/12/03 15:10:15;;;;;;;16.83;11.00;;;;;;;;;;4950542;29;20645;-82
2023/12/03 15:13:20;;;;;;;15.67;10.50;;;;;;;;;;4962448;29;21107;-84
2023/12/03 15:16:26;;;;;;;16.43;10.47;;;;;;;;;;4940525;29;20614;-84
2023/12/03 15:19:33;;;;;;;18.00;10.73;;;;;;;;;;4964352;29;20550;-84
2023/12/03 15:22:37;;;;;;;15.47;10.13;;;;;;;;;;4960793;29;20552;-85
2023/12/03 15:25:41;;;;;;;20.23;11.77;;;;;;;;;;4948715;29;20543;-84
2023/12/03 15:28:45;;;;;;;17.80;11.30;;;;;;;;;;4948399;29;20551;-83
2023/12/03 15:31:49;;;;;;;18.17;11.73;;;;;;;;;;4959544;29;20629;-83
2023/12/03 15:34:53;;;;;;;16.90;10.97;;;;;;;;;;4959618;29;20572;-84
2023/12/03 15:37:58;;;;;;;16.20;10.93;;;;;;;;;;4959011;29;20531;-83
2023/12/03 15:41:02;;;;;;;16.23;10.27;;;;;;;;;;4959495;29;20642;-83
2023/12/03 15:44:06;;;;;;;20.03;11.47;;;;;;;;;;4959394;29;20550;-83
2023/12/03 15:47:10;;;;;;;19.27;11.37;;;;;;;;;;4959306;29;20558;-84
2023/12/03 15:50:14;;;;;;;17.97;10.90;;;;;;;;;;4959425;29;20649;-83
2023/12/03 15:53:18;;;;;;;20.13;11.60;;;;;;;;;;4948156;29;20554;-83
2023/12/03 15:56:22;;;;;;;19.33;11.93;;;;;;;;;;4960239;29;20598;-83
2023/12/03 15:59:27;;;;;;;16.93;11.07;;;;;;;;;;4959857;29;20632;-83
2023/12/03 16:02:31;;;;;;;19.20;11.00;;;;;;;;;;4947939;29;20546;-83
2023/12/03 16:05:35;;;;;;;19.10;11.43;;;;;;;;;;4958937;29;20563;-83
2023/12/03 16:08:39;;;;;;;17.80;11.40;;;;;;;;;;4958837;29;20554;-83
2023/12/03 16:11:43;;;;;;;21.20;11.47;;;;;;;;;;4958962;28;20665;-84
2023/12/03 16:14:48;;;;;;;22.23;11.50;;;;;;;;;;4947743;29;20551;-84
2023/12/03 16:17:53;;;;;;;19.10;11.47;;;;;;;;;;4936988;29;20543;-83
2023/12/03 16:20:57;;;;;;;21.03;11.60;;;;;;;;;;4960283;29;20629;-83
2023/12/03 16:24:01;;;;;;;23.00;12.33;;;;;;;;;;4959302;29;20546;-84
2023/12/03 16:27:05;;;;;;;20.60;11.90;;;;;;;;;;4948060;29;20543;-83
2023/12/03 16:30:10;;;;;;;23.60;11.70;;;;;;;;;;4960213;29;20634;-83
2023/12/03 16:33:14;;;;;;;21.77;11.73;;;;;;;;;;4947293;29;21104;-83
2023/12/03 16:36:18;;;;;;;19.00;11.73;;;;;;;;;;4948750;28;20602;-83
2023/12/03 16:39:23;;;;;;;19.87;11.23;;;;;;;;;;4963611;29;20559;-84
2023/12/03 16:42:27;;;;;;;19.53;11.40;;;;;;;;;;4964366;29;20554;-82
2023/12/03 16:45:31;;;;;;;19.27;11.47;;;;;;;;;;4952445;29;20546;-84
2023/12/03 16:48:36;;;;;;;18.43;10.83;;;;;;;;;;4954858;29;20554;-82
2023/12/03 16:51:40;;;;;;;18.47;11.73;;;;;;;;;;4964409;29;20634;-83
2023/12/03 16:54:44;;;;;;;17.27;10.80;;;;;;;;;;4953444;29;20547;-81
2023/12/03 16:57:48;;;;;;;17.70;11.27;;;;;;;;;;4953736;29;20542;-82
2023/12/03 17:00:53;;;;;;;20.13;12.10;;;;;;;;;;4964651;29;20639;-82
2023/12/03 17:03:57;;;;;;;19.27;11.27;;;;;;;;;;4963913;29;20543;-83
2023/12/03 17:07:03;;;;;;;18.37;10.93;;;;;;;;;;4963355;29;20543;-83
2023/12/03 17:10:09;;;;;;;17.67;10.70;;;;;;;;;;4963467;28;20642;-83
2023/12/03 17:13:13;;;;;;;19.60;12.27;;;;;;;;;;4963455;29;20538;-83
2023/12/03 17:16:18;;;;;;;23.90;12.37;;;;;;;;;;4941773;29;20718;-83
2023/12/03 17:19:22;;;;;;;21.77;12.93;;;;;;;;;;4952489;29;20555;-82
2023/12/03 17:22:26;;;;;;;25.53;14.53;;;;;;;;;;4941235;29;20936;-83
2023/12/03 17:25:31;;;;;;;29.83;14.50;;;;;;;;;;4962641;29;20551;-84
2023/12/03 17:28:35;;;;;;;22.50;13.20;;;;;;;;;;4963412;29;20550;-86
2023/12/03 17:31:41;;;;;;;30.13;18.40;;;;;;;;;;4952227;29;20626;-81
2023/12/03 17:34:45;;;;;;;32.60;17.57;;;;;;;;;;4961570;29;20547;-83
2023/12/03 17:37:50;;;;;;;27.33;17.33;;;;;;;;;;4960939;29;20972;-83
2023/12/03 17:40:54;;;;;;;28.27;15.47;;;;;;;;;;4962059;29;21085;-82
2023/12/03 17:43:58;;;;;;;22.67;14.07;;;;;;;;;;4962921;29;20543;-84
2023/12/03 17:47:02;;;;;;;20.20;12.33;;;;;;;;;;4965775;29;20547;-84
2023/12/03 17:50:11;;;;;;;25.40;13.23;;;;;;;;;;4966429;29;20626;-84
2023/12/03 17:53:16;;;;;;;23.40;13.07;;;;;;;;;;4964916;29;20550;-85
2023/12/03 17:56:21;;;;;;;19.27;12.17;;;;;;;;;;4953357;29;20602;-85
2023/12/03 17:59:26;;;;;;;22.03;12.73;;;;;;;;;;4943652;29;20554;-85
2023/12/03 18:02:31;;;;;;;20.07;11.80;;;;;;;;;;4965270;29;20597;-86
2023/12/03 18:05:35;;;;;;;21.47;12.73;;;;;;;;;;4941871;29;20560;-86
2023/12/03 18:08:40;;;;;;;19.77;12.20;;;;;;;;;;4951862;29;20893;-85